Time;durP1;ratioP1;P1;durP2;ratioP2;P2;SDS_P1;SDS_P2;PMS_P1;PMS_P2;Temp;Humidity;BMP_temperature;BMP_pressure;BME280_temperature;BME280_humidity;BME280_pressure;Samples;Min_cycle;Max_cycle;Signal;HPM_P1;HPM_P2
2023/05/24 00:01:42;;;;;;;43.20;31.50;;;28.50;99.90;;;;;;5095022;28;20027;-72
2023/05/24 00:04:09;;;;;;;45.28;30.27;;;28.60;99.90;;;;;;5076457;28;20024;-71
2023/05/24 00:06:36;;;;;;;50.40;33.28;;;28.50;99.90;;;;;;5094763;28;20121;-71
2023/05/24 00:09:03;;;;;;;46.25;32.13;;;28.60;99.90;;;;;;5094586;28;20016;-70
2023/05/24 00:11:30;;;;;;;44.15;31.20;;;28.70;99.90;;;;;;5094825;28;20062;-71
2023/05/24 00:13:57;;;;;;;46.50;31.58;;;28.80;99.90;;;;;;5094473;28;20547;-70
2023/05/24 00:16:24;;;;;;;46.50;32.50;;;28.90;99.90;;;;;;5094294;28;20048;-71
2023/05/24 00:18:51;;;;;;;47.90;33.45;;;28.90;99.90;;;;;;5093801;28;20091;-71
2023/05/24 00:21:17;;;;;;;48.10;36.40;;;28.60;99.90;;;;;;5092415;28;20120;-69
2023/05/24 00:23:44;;;;;;;47.75;33.78;;;28.90;99.90;;;;;;5093729;28;20069;-71
2023/05/24 00:26:11;;;;;;;49.95;37.25;;;28.80;99.90;;;;;;5093594;28;20123;-70
2023/05/24 00:28:37;;;;;;;81.72;56.53;;;29.00;99.90;;;;;;5092169;28;20059;-69
2023/05/24 00:31:04;;;;;;;44.20;32.40;;;28.90;99.90;;;;;;5092532;28;20035;-69
2023/05/24 00:33:30;;;;;;;42.10;29.88;;;28.90;99.90;;;;;;5093419;28;20059;-69
2023/05/24 00:35:57;;;;;;;52.28;36.28;;;28.90;99.90;;;;;;5093977;28;20107;-69
2023/05/24 00:38:25;;;;;;;42.10;31.90;;;28.90;99.90;;;;;;5093902;28;20024;-70
2023/05/24 00:40:55;;;;;;;44.53;32.60;;;28.90;99.90;;;;;;5093749;28;20044;-69
2023/05/24 00:43:22;;;;;;;40.22;31.15;;;29.00;99.90;;;;;;5093656;28;20051;-69
2023/05/24 00:46:11;;;;;;;42.47;31.45;;;28.80;99.90;;;;;;5093975;28;20024;-69
2023/05/24 00:48:37;;;;;;;48.45;31.25;;;28.90;99.90;;;;;;5093748;28;20020;-69
2023/05/24 00:51:05;;;;;;;46.30;30.55;;;29.00;99.90;;;;;;5093846;28;20030;-70
2023/05/24 00:53:33;;;;;;;39.42;30.42;;;29.20;99.90;;;;;;5093840;28;20454;-69
2023/05/24 00:55:59;;;;;;;44.83;31.10;;;29.20;99.90;;;;;;5093486;28;20118;-70
2023/05/24 00:58:29;;;;;;;41.20;30.77;;;29.30;99.90;;;;;;5093772;28;20020;-69
2023/05/24 01:01:00;;;;;;;45.47;32.83;;;29.40;99.90;;;;;;5093611;28;20023;-71
2023/05/24 01:03:28;;;;;;;46.40;33.40;;;29.40;99.90;;;;;;5093742;28;20042;-71
2023/05/24 01:06:14;;;;;;;48.67;37.40;;;29.50;99.90;;;;;;5093532;28;20461;-71
2023/05/24 01:08:54;;;;;;;247.00;179.38;;;29.50;99.90;;;;;;5112959;28;20047;-70
2023/05/24 01:11:26;;;;;;;168.10;115.20;;;29.50;99.90;;;;;;5113866;28;20103;-71
2023/05/24 01:14:01;;;;;;;211.73;158.82;;;29.50;99.90;;;;;;5093545;28;20112;-70
2023/05/24 01:16:34;;;;;;;171.10;119.72;;;29.60;99.90;;;;;;5093406;28;20020;-71
2023/05/24 01:19:10;;;;;;;188.88;123.97;;;29.70;99.90;;;;;;5093322;28;20115;-68
2023/05/24 01:21:55;;;;;;;217.25;122.50;;;29.60;99.90;;;;;;5094240;28;20024;-70
2023/05/24 01:24:28;;;;;;;95.97;56.47;;;29.50;99.90;;;;;;5113589;28;20527;-69
2023/05/24 01:26:55;;;;;;;71.45;48.92;;;29.60;99.90;;;;;;5113650;28;20507;-69
2023/05/24 01:29:22;;;;;;;69.28;47.78;;;29.60;99.90;;;;;;5113636;28;20031;-68
2023/05/24 01:31:49;;;;;;;71.00;47.53;;;29.70;99.90;;;;;;5113674;28;20024;-69
2023/05/24 01:34:16;;;;;;;67.90;46.53;;;29.70;99.90;;;;;;5099834;28;20031;-69
2023/05/24 01:36:42;;;;;;;74.07;50.47;;;29.80;99.90;;;;;;5093212;28;20034;-69
2023/05/24 01:39:10;;;;;;;190.85;115.70;;;29.80;99.90;;;;;;5093040;28;20055;-69
2023/05/24 01:41:56;;;;;;;208.50;117.30;;;30.00;99.90;;;;;;5093408;28;20025;-70
2023/05/24 01:44:30;;;;;;;98.20;57.33;;;30.00;99.90;;;;;;5087200;28;20024;-72
2023/05/24 01:47:21;;;;;;;53.88;34.60;;;30.10;99.90;;;;;;5097146;28;20112;-68
2023/05/24 01:49:56;;;;;;;133.88;84.10;;;30.10;99.90;;;;;;5094168;28;20024;-74
2023/05/24 01:52:26;;;;;;;114.72;73.93;;;30.20;99.90;;;;;;5097066;28;20035;-71
2023/05/24 01:54:56;;;;;;;75.38;53.10;;;30.30;99.90;;;;;;5113217;28;20082;-71
2023/05/24 01:57:24;;;;;;;54.38;40.80;;;30.20;99.90;;;;;;5117300;28;20024;-70
2023/05/24 01:59:52;;;;;;;75.60;55.35;;;30.40;99.90;;;;;;5117182;28;20028;-72
2023/05/24 02:02:18;;;;;;;119.38;88.65;;;30.30;99.90;;;;;;5117217;28;20141;-70
2023/05/24 02:04:45;;;;;;;78.03;54.70;;;30.40;99.90;;;;;;5117185;28;20019;-73
2023/05/24 02:07:12;;;;;;;39.72;24.63;;;30.40;99.90;;;;;;5117387;28;20027;-71
2023/05/24 02:09:39;;;;;;;32.33;21.90;;;30.40;99.90;;;;;;5117886;28;20540;-72
2023/05/24 02:12:06;;;;;;;33.63;21.85;;;30.50;99.90;;;;;;5117846;28;20023;-73
2023/05/24 02:14:32;;;;;;;34.20;23.67;;;30.50;99.90;;;;;;5117981;28;20081;-70
2023/05/24 02:16:59;;;;;;;31.33;21.15;;;30.60;99.90;;;;;;5117504;28;20030;-71
2023/05/24 02:19:26;;;;;;;35.60;24.50;;;30.60;99.90;;;;;;5117687;28;20526;-71
2023/05/24 02:21:53;;;;;;;30.63;23.30;;;30.60;99.90;;;;;;5099277;28;20019;-72
2023/05/24 02:24:19;;;;;;;33.40;22.67;;;30.60;99.90;;;;;;5117740;28;20315;-71
2023/05/24 02:26:46;;;;;;;27.80;21.77;;;30.70;99.90;;;;;;5117421;28;20086;-70
2023/05/24 02:29:14;;;;;;;28.52;20.27;;;30.70;99.90;;;;;;5100261;22;20072;-71
2023/05/24 02:31:41;;;;;;;28.73;21.70;;;;;;;;;;5033397;28;20057;-69
2023/05/24 02:34:07;;;;;;;92.47;65.15;;;;;;;;;;5032335;28;20501;-69
2023/05/24 02:36:35;;;;;;;68.78;47.25;;;;;;;;;;5033518;28;20097;-69
2023/05/24 02:39:02;;;;;;;217.10;153.77;;;;;;;;;;5033922;28;20110;-70
2023/05/24 02:41:32;;;;;;;140.02;85.57;;;;;;;;;;5033533;28;20022;-71
2023/05/24 02:43:59;;;;;;;96.00;68.18;;;;;;;;;;5033495;28;20013;-70
2023/05/24 02:46:26;;;;;;;95.03;31.95;;;;;;;;;;5033516;28;20463;-70
2023/05/24 02:48:52;;;;;;;68.53;26.55;;;;;;;;;;5033471;28;20021;-69
2023/05/24 02:51:19;;;;;;;64.10;26.05;;;;;;;;;;5033206;28;20034;-69
2023/05/24 02:53:45;;;;;;;31.15;22.95;;;;;;;;;;5033069;28;20051;-69
2023/05/24 02:56:12;;;;;;;27.50;21.23;;;;;;;;;;5032317;28;20474;-71
2023/05/24 02:58:39;;;;;;;41.75;24.80;;;;;;;;;;5032539;28;20496;-70
2023/05/24 03:01:07;;;;;;;45.53;34.53;;;;;;;;;;5031444;28;20419;-70
2023/05/24 03:03:34;;;;;;;32.03;23.50;;;;;;;;;;5032407;28;20448;-70
2023/05/24 03:06:01;;;;;;;36.30;25.83;;;;;;;;;;5025968;28;20049;-70
2023/05/24 03:08:27;;;;;;;27.15;21.98;;;;;;;;;;5026282;28;20057;-70
2023/05/24 03:10:54;;;;;;;31.00;23.45;;;;;;;;;;5012377;28;20037;-71
2023/05/24 03:13:21;;;;;;;33.10;23.80;;;;;;;;;;5014521;28;20414;-71
2023/05/24 03:15:47;;;;;;;35.65;24.65;;;;;;;;;;5020314;28;20463;-71
2023/05/24 03:18:14;;;;;;;29.45;24.10;;;;;;;;;;5010483;28;20482;-71
2023/05/24 03:20:41;;;;;;;31.95;23.95;;;;;;;;;;5010480;28;20010;-72
2023/05/24 03:23:08;;;;;;;33.95;25.05;;;;;;;;;;5010987;28;20030;-70
2023/05/24 03:25:35;;;;;;;29.98;22.85;;;;;;;;;;5011079;28;20029;-70
2023/05/24 03:28:01;;;;;;;30.63;23.67;;;;;;;;;;5011096;28;20030;-71
2023/05/24 03:30:28;;;;;;;32.95;26.38;;;;;;;;;;5010553;28;20045;-68
2023/05/24 03:32:55;;;;;;;35.90;27.77;;;;;;;;;;5024298;28;20042;-72
2023/05/24 03:35:22;;;;;;;36.40;26.52;;;;;;;;;;5023591;28;20034;-72
2023/05/24 03:37:48;;;;;;;36.72;28.20;;;;;;;;;;5011995;28;20033;-73
2023/05/24 03:40:15;;;;;;;39.78;29.25;;;;;;;;;;5012134;28;20018;-72
2023/05/24 03:42:42;;;;;;;35.22;26.38;;;;;;;;;;5012200;28;20489;-72
2023/05/24 03:45:08;;;;;;;33.05;24.55;;;;;;;;;;5012106;28;20030;-72
2023/05/24 03:50:04;;;;;;;29.88;23.40;;;;;;;;;;5012328;28;20033;-73
2023/05/24 03:52:31;;;;;;;32.83;25.08;;;;;;;;;;5012127;28;20026;-74
2023/05/24 03:54:57;;;;;;;33.45;24.38;;;;;;;;;;5012170;28;20074;-74
2023/05/24 03:57:24;;;;;;;41.90;25.92;;;;;;;;;;5011816;28;20120;-72
2023/05/24 03:59:51;;;;;;;35.55;25.23;;;;;;;;;;5012146;28;20048;-73
2023/05/24 04:02:17;;;;;;;32.25;24.10;;;;;;;;;;5012040;28;20022;-72
2023/05/24 04:04:45;;;;;;;31.52;23.48;;;;;;;;;;5011722;28;20466;-71
2023/05/24 04:07:12;;;;;;;33.03;24.75;;;;;;;;;;5011732;28;20394;-73
2023/05/24 04:09:39;;;;;;;35.08;25.95;;;;;;;;;;5011922;28;20441;-74
2023/05/24 04:12:06;;;;;;;30.27;22.67;;;;;;;;;;5011796;28;20022;-71
2023/05/24 04:14:34;;;;;;;35.08;24.55;;;;;;;;;;5011867;28;20087;-72
2023/05/24 04:17:03;;;;;;;31.70;23.10;;;;;;;;;;5011337;28;20360;-72
2023/05/24 04:19:29;;;;;;;29.85;22.80;;;;;;;;;;5011529;28;20030;-71
2023/05/24 04:21:57;;;;;;;31.88;22.88;;;;;;;;;;5011485;28;20442;-70
2023/05/24 04:24:23;;;;;;;29.23;23.98;;;;;;;;;;5011623;28;20379;-71
2023/05/24 04:26:50;;;;;;;35.33;22.90;;;;;;;;;;5013556;28;20033;-75
2023/05/24 04:29:17;;;;;;;30.38;24.00;;;;;;;;;;5026001;28;20065;-75
2023/05/24 04:31:44;;;;;;;32.05;25.27;;;;;;;;;;5028015;28;20457;-75
2023/05/24 04:34:13;;;;;;;27.70;23.10;;;;;;;;;;5027437;28;20026;-74
2023/05/24 04:36:40;;;;;;;33.60;24.60;;;;;;;;;;5018602;28;20022;-73
2023/05/24 04:39:06;;;;;;;35.65;26.48;;;;;;;;;;5020228;28;20010;-73
2023/05/24 04:41:36;;;;;;;30.55;23.80;;;;;;;;;;5020178;28;20014;-73
2023/05/24 04:44:02;;;;;;;27.80;20.90;;;;;;;;;;5018548;28;20022;-72
2023/05/24 04:46:30;;;;;;;30.75;23.63;;;;;;;;;;5020037;28;20067;-73
2023/05/24 04:48:56;;;;;;;27.02;22.30;;;;;;;;;;5020063;28;20014;-73
2023/05/24 04:51:23;;;;;;;29.10;21.42;;;;;;;;;;5018303;28;20435;-72
2023/05/24 04:53:50;;;;;;;31.00;22.70;;;;;;;;;;5019580;28;20470;-73
2023/05/24 04:56:18;;;;;;;27.20;21.55;;;;;;;;;;5029079;28;20064;-74
2023/05/24 04:58:45;;;;;;;27.27;21.73;;;;;;;;;;5024392;28;20144;-73
2023/05/24 05:01:11;;;;;;;29.05;20.80;;;;;;;;;;5013220;28;20018;-72
2023/05/24 05:03:38;;;;;;;31.77;20.83;;;;;;;;;;5010788;28;20069;-72
2023/05/24 05:06:05;;;;;;;26.83;20.15;;;;;;;;;;5010928;28;20025;-73
2023/05/24 05:08:32;;;;;;;30.15;19.45;;;;;;;;;;5010834;28;20080;-73
2023/05/24 05:10:59;;;;;;;29.90;19.85;;;;;;;;;;5011037;28;20075;-73
2023/05/24 05:13:25;;;;;;;45.22;33.65;;;;;;;;;;5016821;28;20021;-71
2023/05/24 05:15:52;;;;;;;34.33;28.65;;;;;;;;;;5029950;28;20043;-71
2023/05/24 05:18:19;;;;;;;32.65;25.73;;;;;;;;;;5030252;28;20045;-71
2023/05/24 05:20:45;;;;;;;53.22;38.50;;;;;;;;;;5029594;28;20060;-70
2023/05/24 05:23:12;;;;;;;27.33;20.27;;;;;;;;;;5030062;28;20018;-72
2023/05/24 05:25:38;;;;;;;23.50;17.08;;;;;;;;;;5030268;28;20022;-72
2023/05/24 05:28:05;;;;;;;22.17;15.73;;;;;;;;;;5028226;28;20025;-70
2023/05/24 05:30:32;;;;;;;24.30;15.57;;;;;;;;;;5019279;28;20511;-70
2023/05/24 05:32:58;;;;;;;29.73;18.52;;;;;;;;;;5017773;28;20026;-69
2023/05/24 05:35:25;;;;;;;42.28;24.60;;;;;;;;;;5019997;28;20051;-73
2023/05/24 05:37:51;;;;;;;54.35;39.63;;;;;;;;;;5015855;28;20099;-71
2023/05/24 05:40:18;;;;;;;26.90;21.55;;;;;;;;;;5021050;28;20047;-72
2023/05/24 05:42:46;;;;;;;50.58;35.72;;;;;;;;;;5022964;28;20040;-70
2023/05/24 05:45:12;;;;;;;42.53;34.88;;;;;;;;;;5019744;28;20044;-71
2023/05/24 05:47:40;;;;;;;42.88;30.25;;;;;;;;;;5014005;28;20038;-70
2023/05/24 05:50:06;;;;;;;49.80;38.03;;;;;;;;;;5014798;28;20030;-71
2023/05/24 05:52:33;;;;;;;46.05;33.63;;;;;;;;;;5014018;28;20013;-72
2023/05/24 05:55:00;;;;;;;39.75;27.05;;;;;;;;;;5014410;28;20109;-72
2023/05/24 05:57:27;;;;;;;32.15;21.08;;;;;;;;;;5016802;28;20505;-71
2023/05/24 05:59:53;;;;;;;56.58;41.17;;;;;;;;;;5019432;28;20028;-72
2023/05/24 06:02:23;;;;;;;37.40;22.33;;;;;;;;;;5018464;28;20029;-72
2023/05/24 06:04:50;;;;;;;79.07;58.35;;;;;;;;;;5019796;28;20075;-71
2023/05/24 06:07:16;;;;;;;66.82;50.50;;;;;;;;;;5018947;28;20018;-71
2023/05/24 06:09:43;;;;;;;23.25;16.45;;;;;;;;;;5018285;28;20086;-73
2023/05/24 06:12:10;;;;;;;21.52;13.93;;;;;;;;;;5020058;28;20521;-70
2023/05/24 06:14:37;;;;;;;65.95;44.80;;;;;;;;;;5022703;28;20053;-73
2023/05/24 06:17:05;;;;;;;87.85;61.80;;;;;;;;;;5017523;28;20026;-72
2023/05/24 06:19:31;;;;;;;33.30;25.80;;;;;;;;;;5017881;28;20057;-70
2023/05/24 06:21:58;;;;;;;48.60;36.13;;;;;;;;;;5019126;28;20370;-72
2023/05/24 06:24:27;;;;;;;26.35;21.98;;;;;;;;;;5015710;28;20544;-72
2023/05/24 06:26:54;;;;;;;25.92;18.77;;;;;;;;;;5017337;28;20078;-70
2023/05/24 06:29:21;;;;;;;67.03;39.15;;;;;;;;;;5018235;28;20045;-71
2023/05/24 06:31:48;;;;;;;26.02;18.45;;;;;;;;;;5017622;28;20029;-73
2023/05/24 06:34:19;;;;;;;42.97;33.17;;;;;;;;;;5021518;28;20063;-72
2023/05/24 06:36:47;;;;;;;45.50;32.17;;;;;;;;;;5023662;28;20051;-73
2023/05/24 06:39:14;;;;;;;34.65;24.25;;;;;;;;;;5021457;28;20474;-71
2023/05/24 06:41:42;;;;;;;31.27;24.73;;;;;;;;;;5023987;28;20541;-71
2023/05/24 06:44:08;;;;;;;25.67;18.50;;;;;;;;;;5025472;28;20029;-70
2023/05/24 06:46:35;;;;;;;23.92;17.40;;;;;;;;;;5016795;28;20022;-70
2023/05/24 06:49:02;;;;;;;22.35;14.13;;;;;;;;;;5013566;28;20068;-70
2023/05/24 06:51:29;;;;;;;30.42;20.80;;;;;;;;;;5013657;28;20057;-68
2023/05/24 06:53:55;;;;;;;24.13;17.70;;;;;;;;;;5022746;28;20108;-70
2023/05/24 06:56:22;;;;;;;52.60;35.75;;;;;;;;;;5024147;28;20033;-69
2023/05/24 06:58:48;;;;;;;46.03;28.75;;;;;;;;;;5027916;28;20478;-67
2023/05/24 07:01:18;;;;;;;22.60;16.73;;;;;;;;;;5028061;28;20032;-68
2023/05/24 07:03:45;;;;;;;23.60;14.75;;;;;;;;;;5020419;28;20020;-69
2023/05/24 07:06:12;;;;;;;21.38;14.77;;;;;;;;;;5018494;28;20072;-70
2023/05/24 07:08:40;;;;;;;39.25;28.15;;;;;;;;;;5021236;28;20049;-69
2023/05/24 07:11:07;;;;;;;23.52;17.55;;;;;;;;;;5021906;28;20079;-69
2023/05/24 07:13:34;;;;;;;22.45;15.98;;;;;;;;;;5012327;28;20025;-70
2023/05/24 07:16:01;;;;;;;21.40;14.93;;;;;;;;;;5012223;28;20018;-71
2023/05/24 07:18:27;;;;;;;19.83;15.65;;;;;;;;;;5012582;28;20463;-70
2023/05/24 07:20:54;;;;;;;21.80;15.25;;;;;;;;;;5012305;28;20029;-71
2023/05/24 07:23:21;;;;;;;20.25;14.90;;;;;;;;;;5012200;28;20478;-71
2023/05/24 07:25:48;;;;;;;19.58;14.60;;;;;;;;;;5027858;28;20018;-71
2023/05/24 07:28:16;;;;;;;23.58;15.30;;;;;;;;;;5029982;28;20030;-71
2023/05/24 07:30:43;;;;;;;22.33;16.45;;;;;;;;;;5032580;28;20029;-71
2023/05/24 07:33:10;;;;;;;45.25;33.63;;;;;;;;;;5015744;28;20498;-71
2023/05/24 07:35:37;;;;;;;100.00;76.38;;;;;;;;;;5012267;28;20105;-74
2023/05/24 07:38:04;;;;;;;38.05;28.20;;;;;;;;;;5012405;28;20041;-70
2023/05/24 07:40:31;;;;;;;21.35;16.30;;;;;;;;;;5012057;28;20109;-73
2023/05/24 07:42:57;;;;;;;23.23;17.17;;;;;;;;;;5028999;28;20030;-70
2023/05/24 07:45:24;;;;;;;23.15;17.65;;;;;;;;;;5024994;28;20415;-71
2023/05/24 07:47:51;;;;;;;27.58;16.90;;;;;;;;;;5031105;28;20026;-72
2023/05/24 07:50:17;;;;;;;20.40;16.48;;;;;;;;;;5024286;28;20034;-72
2023/05/24 07:52:44;;;;;;;21.15;16.38;;;;;;;;;;5012487;28;20061;-70
2023/05/24 07:55:11;;;;;;;26.27;16.80;;;;;;;;;;5019639;28;20504;-69
2023/05/24 07:57:37;;;;;;;22.13;15.98;;;;;;;;;;5031728;28;20105;-71
2023/05/24 08:00:13;;;;;;;21.67;15.73;;;;;;;;;;5031588;28;20393;-70
2023/05/24 08:02:41;;;;;;;34.95;28.85;;;;;;;;;;5025913;28;20421;-71
2023/05/24 08:05:09;;;;;;;24.52;18.05;;;;;;;;;;5020359;28;20063;-72
2023/05/24 08:07:36;;;;;;;22.83;16.80;;;;;;;;;;5021367;28;20017;-70
2023/05/24 08:10:02;;;;;;;24.63;17.58;;;;;;;;;;5025428;28;20112;-70
2023/05/24 08:12:30;;;;;;;22.17;16.35;;;;;;;;;;5031801;28;20028;-71
2023/05/24 08:14:56;;;;;;;39.63;27.23;;;;;;;;;;5031467;28;20026;-72
2023/05/24 08:17:23;;;;;;;31.80;25.48;;;;;;;;;;5031408;28;20057;-70
2023/05/24 08:19:50;;;;;;;40.15;32.42;;;;;;;;;;5031569;28;20390;-70
2023/05/24 08:22:17;;;;;;;32.35;23.67;;;;;;;;;;5024720;28;20033;-70
2023/05/24 08:32:48;;;;;;;19.52;15.38;;;;;;;;;;5090974;28;20424;-69
2023/05/24 08:35:15;;;;;;;19.90;14.25;;;;;;;;;;5090573;28;20059;-69
2023/05/24 08:37:41;;;;;;;20.90;14.13;;;;;;;;;;5090471;28;20079;-70
2023/05/24 08:40:08;;;;;;;19.98;13.70;;;;;;;;;;5076728;28;20078;-69
2023/05/24 08:42:38;;;;;;;23.15;15.07;;;;;;;;;;5070479;28;20090;-69
2023/05/24 08:45:08;;;;;;;23.38;14.13;;;;;;;;;;5070180;28;20116;-71
2023/05/24 08:47:36;;;;;;;19.02;14.50;;;;;;;;;;5070541;28;20033;-70
2023/05/24 08:50:03;;;;;;;22.15;15.50;;;;;;;;;;5070598;28;20513;-68
2023/05/24 08:52:31;;;;;;;22.92;15.18;;;;;;;;;;5067386;28;20381;-70
2023/05/24 08:54:59;;;;;;;21.25;15.77;;;;;;;;;;5068584;28;20025;-70
2023/05/24 08:57:29;;;;;;;36.60;29.98;;;;;;;;;;5069343;28;20024;-70
2023/05/24 08:59:56;;;;;;;22.67;15.75;;;;;;;;;;5069413;28;20469;-71
2023/05/24 09:02:23;;;;;;;22.80;14.75;;;;;;;;;;5069698;28;20043;-70
2023/05/24 09:04:51;;;;;;;25.65;17.45;;;;;;;;;;5067560;28;20504;-70
2023/05/24 09:07:19;;;;;;;29.27;18.40;;;;;;;;;;5058068;28;20033;-71
2023/05/24 09:09:47;;;;;;;26.60;19.85;;;;;;;;;;5064471;28;20508;-69
2023/05/24 09:12:15;;;;;;;21.58;17.08;;;;;;;;;;5067385;28;20466;-70
2023/05/24 09:14:46;;;;;;;136.23;102.38;;;;;;;;;;5056237;28;20064;-69
2023/05/24 09:17:14;;;;;;;61.65;41.15;;;;;;;;;;5067745;28;20071;-70
2023/05/24 09:19:51;;;;;;;30.38;20.63;;;;;;;;;;5067771;28;20099;-70
2023/05/24 09:22:24;;;;;;;27.70;18.65;;;;;;;;;;5067578;28;20033;-70
2023/05/24 09:24:51;;;;;;;24.77;19.67;;;;;;;;;;5067507;28;20067;-69
2023/05/24 09:27:21;;;;;;;31.00;19.67;;;;;;;;;;5056687;28;20049;-70
2023/05/24 09:29:48;;;;;;;29.95;20.25;;;;;;;;;;5065691;28;20028;-70
2023/05/24 09:32:15;;;;;;;27.52;19.63;;;;;;;;;;5057642;28;20044;-70
2023/05/24 09:34:43;;;;;;;27.05;20.35;;;;;;;;;;5059140;28;20008;-69
2023/05/24 09:37:12;;;;;;;25.52;21.38;;;;;;;;;;5057433;28;20048;-71
2023/05/24 09:39:41;;;;;;;30.02;21.00;;;;;;;;;;5067820;28;20025;-71
2023/05/24 09:42:08;;;;;;;31.08;21.75;;;;;;;;;;5061823;28;20051;-70
2023/05/24 09:44:35;;;;;;;31.98;22.73;;;;;;;;;;5053175;28;20071;-69
2023/05/24 09:47:05;;;;;;;39.92;23.90;;;;;;;;;;5054452;28;20477;-71
2023/05/24 09:49:32;;;;;;;34.10;24.27;;;;;;;;;;5054635;28;20056;-70
2023/05/24 09:51:59;;;;;;;68.50;50.80;;;;;;;;;;5054679;28;20056;-69
2023/05/24 09:54:26;;;;;;;84.82;57.40;;;;;;;;;;5054731;28;20017;-70
2023/05/24 09:56:53;;;;;;;75.00;53.85;;;;;;;;;;5054509;28;20470;-70
2023/05/24 09:59:20;;;;;;;78.65;58.67;;;;;;;;;;5043826;28;20017;-71
2023/05/24 10:01:52;;;;;;;45.95;34.13;;;;;;;;;;5054369;28;20032;-70
2023/05/24 10:04:19;;;;;;;40.25;26.77;;;;;;;;;;5054525;28;20029;-70
2023/05/24 10:06:46;;;;;;;36.90;27.60;;;;;;;;;;5054506;28;20028;-70
2023/05/24 10:09:14;;;;;;;41.60;29.48;;;;;;;;;;5054591;28;20106;-70
2023/05/24 10:11:41;;;;;;;39.05;26.88;;;;;;;;;;5054260;28;20029;-72
2023/05/24 10:14:08;;;;;;;40.85;28.92;;;;;;;;;;5052012;28;20021;-72
2023/05/24 10:16:37;;;;;;;43.20;26.40;;;;;;;;;;5053217;28;20017;-71
2023/05/24 10:19:04;;;;;;;44.08;29.55;;;;;;;;;;5054545;28;20070;-72
2023/05/24 10:21:31;;;;;;;48.65;32.00;;;;;;;;;;5050950;28;20025;-74
2023/05/24 10:23:59;;;;;;;57.05;39.63;;;;;;;;;;5054146;28;20091;-72
2023/05/24 10:26:28;;;;;;;86.97;64.60;;;;;;;;;;5052052;28;20041;-75
2023/05/24 10:28:59;;;;;;;79.93;59.50;;;;;;;;;;5054813;28;20012;-74
2023/05/24 10:31:30;;;;;;;135.10;77.03;;;;;;;;;;5043381;28;20041;-74
2023/05/24 10:33:58;;;;;;;153.80;74.97;;;;;;;;;;5054330;28;20520;-79
2023/05/24 10:36:25;;;;;;;123.03;63.97;;;;;;;;;;5055051;28;20454;-72
2023/05/24 10:38:52;;;;;;;145.85;69.57;;;;;;;;;;5054082;28;20029;-73
2023/05/24 10:41:19;;;;;;;121.90;66.45;;;;;;;;;;5054383;28;20017;-73
2023/05/24 10:43:47;;;;;;;171.80;102.80;;;;;;;;;;5054366;28;20547;-75
2023/05/24 10:46:17;;;;;;;70.68;48.40;;;;;;;;;;5054038;28;20021;-73
2023/05/24 10:48:43;;;;;;;115.28;90.88;;;;;;;;;;5054470;28;20024;-73
2023/05/24 10:51:31;;;;;;;102.97;73.22;;;;;;;;;;5054157;28;20103;-71
2023/05/24 10:53:58;;;;;;;101.78;68.63;;;;;;;;;;5051249;28;20327;-72
2023/05/24 10:56:27;;;;;;;89.18;59.13;;;;;;;;;;5053976;28;20048;-73
2023/05/24 10:58:55;;;;;;;63.30;40.53;;;;;;;;;;5042794;28;20061;-71
2023/05/24 11:01:32;;;;;;;50.85;33.47;;;;;;;;;;5054002;28;20021;-76
2023/05/24 11:04:07;;;;;;;47.70;32.38;;;;;;;;;;5051962;28;20013;-75
2023/05/24 11:06:48;;;;;;;47.22;33.80;;;;;;;;;;5054242;28;20020;-74
2023/05/24 11:09:19;;;;;;;45.92;32.75;;;;;;;;;;5051579;28;20375;-77
2023/05/24 11:11:47;;;;;;;56.35;34.92;;;;;;;;;;5053808;28;20020;-73
2023/05/24 11:14:14;;;;;;;47.88;33.35;;;;;;;;;;5053673;28;20144;-72
2023/05/24 11:16:44;;;;;;;47.60;32.58;;;;;;;;;;5053414;28;20437;-74
2023/05/24 11:19:12;;;;;;;52.30;35.28;;;;;;;;;;5053781;28;20103;-74
2023/05/24 11:21:40;;;;;;;42.35;30.85;;;;;;;;;;5052251;28;20082;-72
2023/05/24 11:24:08;;;;;;;43.70;30.95;;;;;;;;;;5050752;28;20236;-74
2023/05/24 11:26:35;;;;;;;70.75;51.20;;;;;;;;;;5053146;28;20029;-73
2023/05/24 11:29:04;;;;;;;153.13;113.85;;;;;;;;;;5053075;28;20028;-71
2023/05/24 11:31:31;;;;;;;166.88;120.35;;;;;;;;;;5052684;28;20333;-72
2023/05/24 11:34:00;;;;;;;157.88;117.18;;;;;;;;;;5048467;28;20053;-75
2023/05/24 11:36:26;;;;;;;93.65;66.32;;;;;;;;;;5046102;28;20105;-74
2023/05/24 11:38:54;;;;;;;76.63;52.40;;;;;;;;;;5047521;28;20067;-73
2023/05/24 11:41:20;;;;;;;85.72;57.38;;;;;;;;;;5051886;28;20024;-73
2023/05/24 11:43:47;;;;;;;55.90;40.47;;;;;;;;;;5051802;28;20032;-71
2023/05/24 11:46:15;;;;;;;44.67;33.33;;;;;;;;;;5051613;28;20035;-67
2023/05/24 11:48:42;;;;;;;54.83;36.97;;;;;;;;;;5041420;28;20033;-73
2023/05/24 11:51:08;;;;;;;46.78;32.00;;;;;;;;;;5075778;28;20059;-74
2023/05/24 11:53:35;;;;;;;40.25;28.38;;;;;;;;;;5049822;28;20569;-77
2023/05/24 11:56:03;;;;;;;40.30;28.95;;;;;;;;;;5048141;28;20136;-77
2023/05/24 11:58:36;;;;;;;51.22;34.50;;;;;;;;;;5049779;28;20032;-73
2023/05/24 12:01:02;;;;;;;53.88;34.70;;;;;;;;;;5051805;28;20029;-74
2023/05/24 12:03:29;;;;;;;50.55;34.42;;;;;;;;;;5050777;28;20033;-75
2023/05/24 12:05:57;;;;;;;48.08;36.33;;;;;;;;;;5051248;28;20587;-75
2023/05/24 12:08:23;;;;;;;36.70;30.20;;;;;;;;;;5043401;28;20064;-75
2023/05/24 12:10:50;;;;;;;42.15;30.83;;;;;;;;;;5043522;28;20035;-70
2023/05/24 12:13:21;;;;;;;39.28;29.40;;;;;;;;;;5052443;28;20029;-70
2023/05/24 12:15:49;;;;;;;42.47;30.77;;;;;;;;;;5049730;28;20062;-70
2023/05/24 12:18:21;;;;;;;91.03;69.88;;;;;;;;;;5049295;28;20021;-74
2023/05/24 12:20:49;;;;;;;136.98;107.20;;;;;;;;;;5049870;28;20017;-74
2023/05/24 12:23:20;;;;;;;80.53;66.60;;;;;;;;;;5051431;28;20025;-74
2023/05/24 12:25:47;;;;;;;59.83;48.22;;;;;;;;;;5049507;28;20017;-71
2023/05/24 12:28:13;;;;;;;69.18;55.85;;;;;;;;;;5050533;28;20633;-70
2023/05/24 12:30:43;;;;;;;104.70;86.60;;;;;;;;;;5038544;28;20041;-76
2023/05/24 12:33:10;;;;;;;54.25;42.92;;;;;;;;;;5049760;28;20044;-74
2023/05/24 12:35:41;;;;;;;68.18;52.08;;;;;;;;;;5049714;28;20055;-73
2023/05/24 12:38:10;;;;;;;74.82;55.17;;;;;;;;;;5048260;28;20025;-75
2023/05/24 12:40:37;;;;;;;96.03;74.80;;;;;;;;;;5048022;28;20418;-74
2023/05/24 12:43:05;;;;;;;162.32;133.95;;;;;;;;;;5051020;28;20017;-74
2023/05/24 12:45:31;;;;;;;82.03;63.97;;;;;;;;;;5051399;28;20078;-73
2023/05/24 12:48:01;;;;;;;51.42;37.53;;;;;;;;;;5040650;28;20024;-72
2023/05/24 12:50:28;;;;;;;53.05;39.20;;;;;;;;;;5048926;28;20021;-72
2023/05/24 12:52:54;;;;;;;46.30;30.35;;;;;;;;;;5051280;28;20021;-74
2023/05/24 12:55:25;;;;;;;35.95;29.38;;;;;;;;;;5040697;28;20026;-76
2023/05/24 12:57:53;;;;;;;35.80;28.77;;;;;;;;;;5041427;28;20009;-74
2023/05/24 13:00:22;;;;;;;41.08;27.52;;;;;;;;;;5042266;28;20022;-74
2023/05/24 13:02:51;;;;;;;37.45;29.02;;;;;;;;;;5049528;28;20071;-73
2023/05/24 13:05:18;;;;;;;36.75;29.20;;;;;;;;;;5051366;28;20028;-75
2023/05/24 13:07:45;;;;;;;35.60;26.90;;;;;;;;;;5040561;28;20539;-75
2023/05/24 13:10:12;;;;;;;36.58;28.33;;;;;;;;;;5040831;28;20033;-69
2023/05/24 13:12:40;;;;;;;34.10;27.65;;;;;;;;;;5046229;28;20033;-70
2023/05/24 13:15:07;;;;;;;39.33;28.02;;;;;;;;;;5042183;28;20033;-71
2023/05/24 13:17:34;;;;;;;35.05;27.48;;;;;;;;;;5033546;28;20490;-71
2023/05/24 13:20:05;;;;;;;35.80;28.38;;;;;;;;;;5036720;28;20052;-73
2023/05/24 13:22:31;;;;;;;110.30;85.15;;;;;;;;;;5044858;28;20104;-71
2023/05/24 13:24:58;;;;;;;58.65;45.58;;;;;;;;;;5047529;28;20029;-71
2023/05/24 13:27:25;;;;;;;41.67;32.13;;;;;;;;;;5055015;28;20044;-74
2023/05/24 13:29:52;;;;;;;38.08;29.95;;;;;;;;;;5056282;28;20478;-71
2023/05/24 13:32:19;;;;;;;36.75;29.30;;;;;;;;;;5055546;28;20049;-76
2023/05/24 13:34:45;;;;;;;39.75;29.73;;;;;;;;;;5055262;28;20067;-77
2023/05/24 13:37:12;;;;;;;36.05;27.92;;;;;;;;;;5055300;28;20028;-74
2023/05/24 13:39:39;;;;;;;37.42;29.17;;;;;;;;;;5055315;28;20021;-76
2023/05/24 13:42:06;;;;;;;36.05;29.17;;;;;;;;;;5056149;28;20024;-75
2023/05/24 13:44:32;;;;;;;38.33;29.77;;;;;;;;;;5054603;28;20036;-74
2023/05/24 13:46:59;;;;;;;40.88;31.88;;;;;;;;;;5055940;28;20128;-76
2023/05/24 13:49:26;;;;;;;38.92;29.25;;;;;;;;;;5054226;28;20089;-70
2023/05/24 13:51:53;;;;;;;38.45;30.27;;;;;;;;;;5067218;23;20053;-70
2023/05/24 13:54:20;;;;;;;41.53;29.65;;;;;;;;;;5056116;28;20021;-69
2023/05/24 13:56:48;;;;;;;41.20;31.38;;;;;;;;;;5055352;28;20028;-69
2023/05/24 13:59:15;;;;;;;42.83;31.75;;;;;;;;;;5055333;28;20373;-69
2023/05/24 14:01:43;;;;;;;42.22;30.10;;;;;;;;;;5055204;28;20021;-69
2023/05/24 14:04:10;;;;;;;39.78;30.75;;;;;;;;;;5055102;28;20397;-68
2023/05/24 14:06:37;;;;;;;40.28;32.05;;;;;;;;;;5055246;28;20277;-68
2023/05/24 14:09:06;;;;;;;44.08;30.60;;;;;;;;;;5055201;28;20052;-68